createdAt,value
2022-10-31T02:10:41.968Z,-1.54
2022-10-31T02:17:26.190Z,-1.57
2022-10-31T02:49:00.889Z,-1.43
2022-10-31T03:16:06.866Z,-1.43
2022-10-31T03:19:29.747Z,-1.49
2022-10-31T03:25:45.353Z,-1.48
2022-10-31T03:32:58.932Z,-1.51
2022-10-31T03:36:37.513Z,-1.53
2022-10-31T03:43:34.941Z,-1.57
2022-10-31T03:49:59.446Z,-1.61
2022-10-31T04:00:04.607Z,-1.67
2022-10-31T04:13:23.593Z,-1.66
2022-10-31T04:23:14.658Z,-1.65
2022-10-31T04:26:12.199Z,-1.67
2022-10-31T04:50:20.312Z,-1.66
2022-10-31T05:06:46.631Z,-1.56
2022-10-31T05:10:00.057Z,-1.55
2022-10-31T05:13:08.802Z,-1.53
2022-10-31T05:19:46.325Z,-1.49
2022-10-31T05:23:02.944Z,-1.48
2022-10-31T05:26:02.606Z,-1.44
2022-10-31T05:32:39.647Z,-1.43
2022-10-31T05:35:59.185Z,-1.41
2022-10-31T05:46:31.007Z,-1.35
2022-10-31T05:53:22.826Z,-1.28
2022-10-31T06:09:15.034Z,-1.24
2022-10-31T06:12:11.348Z,-1.22
2022-10-31T06:15:23.713Z,-1.22
2022-10-31T06:18:15.906Z,-1.21
2022-10-31T06:24:13.626Z,-1.16
2022-10-31T06:30:28.409Z,-1.15
2022-10-31T06:33:23.786Z,-1.11
2022-10-31T06:39:31.153Z,-1.10
2022-10-31T06:42:35.515Z,-1.07
2022-10-31T06:45:38.307Z,-1.04
2022-10-31T06:49:01.751Z,-0.97
2022-10-31T06:55:23.305Z,-0.92
2022-10-31T06:58:22.086Z,-0.92
2022-10-31T07:07:25.045Z,-0.72
2022-10-31T07:10:18.406Z,-0.72
2022-10-31T07:16:28.205Z,-0.57
2022-10-31T07:19:23.417Z,-0.57
2022-10-31T07:22:31.720Z,-0.48
2022-10-31T07:28:33.097Z,-0.35
2022-10-31T07:34:37.328Z,-0.24
2022-10-31T07:37:43.801Z,-0.24
2022-10-31T07:44:10.746Z,-0.24
2022-10-31T07:47:33.412Z,-0.25
2022-10-31T07:54:09.110Z,-0.23
2022-10-31T07:56:40.885Z,-0.21
2022-10-31T08:09:12.401Z,-0.17
2022-10-31T08:12:06.534Z,-0.13
2022-10-31T08:14:52.267Z,-0.13
2022-10-31T08:17:43.704Z,-0.09
2022-10-31T08:20:41.745Z,-0.07
2022-10-31T08:23:30.506Z,-0.02
2022-10-31T08:26:28.892Z,0.02
2022-10-31T08:29:49.829Z,0.08
2022-10-31T08:36:18.844Z,0.13
2022-10-31T08:39:31.663Z,0.16
2022-10-31T08:42:24.598Z,0.16
2022-10-31T08:45:22.861Z,0.16
2022-10-31T08:48:20.288Z,0.16
2022-10-31T08:51:27.669Z,0.16
2022-10-31T08:54:23.044Z,0.16
2022-10-31T08:57:23.299Z,0.21
2022-10-31T09:00:11.526Z,0.16
2022-10-31T09:03:02.528Z,0.23
2022-10-31T09:05:48.983Z,0.20
2022-10-31T09:08:28.834Z,0.23
2022-10-31T09:10:59.243Z,0.32
2022-10-31T09:13:47.183Z,0.32
2022-10-31T09:16:43.013Z,0.40
2022-10-31T09:19:30.206Z,0.43
2022-10-31T09:22:07.485Z,0.43
2022-10-31T09:24:46.809Z,0.43
2022-10-31T09:27:29.563Z,0.47
2022-10-31T09:30:06.316Z,0.47
2022-10-31T09:32:46.404Z,0.53
2022-10-31T09:35:24.674Z,0.53
2022-10-31T09:38:04.639Z,0.57
2022-10-31T09:40:40.377Z,0.57
2022-10-31T09:46:01.950Z,0.65
2022-10-31T09:51:31.107Z,0.92
2022-10-31T09:54:27.790Z,1.00
2022-10-31T09:56:59.340Z,1.00
2022-10-31T10:02:29.984Z,1.13
2022-10-31T10:05:02.628Z,1.08
2022-10-31T10:10:55.182Z,1.19
2022-10-31T10:19:49.930Z,1.28
2022-10-31T10:22:39.002Z,1.23
2022-10-31T10:25:40.445Z,1.24
2022-10-31T10:30:56.114Z,1.32
2022-10-31T10:33:36.242Z,1.29
2022-10-31T10:36:14.598Z,1.31
2022-10-31T10:39:13.414Z,1.32
2022-10-31T10:41:49.164Z,1.33
2022-10-31T10:44:24.105Z,1.30
2022-10-31T10:47:21.175Z,1.26
2022-10-31T10:49:53.622Z,1.23
2022-10-31T10:58:12.084Z,1.28
2022-10-31T11:00:54.077Z,1.25
2022-10-31T11:03:29.305Z,1.25
2022-10-31T11:06:07.095Z,1.23
2022-10-31T11:08:55.360Z,1.21
2022-10-31T11:11:47.969Z,1.19
2022-10-31T11:14:35.916Z,1.18
2022-10-31T11:17:49.164Z,1.19
2022-10-31T11:23:06.666Z,1.21
2022-10-31T11:25:36.030Z,1.16
2022-10-31T11:28:10.444Z,1.16
2022-10-31T11:30:52.626Z,1.19
2022-10-31T11:33:28.990Z,1.22
2022-10-31T11:35:59.992Z,1.22
2022-10-31T11:38:42.482Z,1.21
2022-10-31T11:41:39.578Z,1.20
2022-10-31T11:47:01.445Z,1.21
2022-10-31T11:55:41.206Z,1.15
2022-10-31T11:58:27.497Z,1.15
2022-10-31T12:00:58.566Z,1.17
2022-10-31T12:06:37.849Z,1.23
2022-10-31T12:09:24.920Z,1.16
2022-10-31T12:23:55.026Z,1.25
2022-10-31T12:31:59.072Z,1.27
2022-10-31T12:40:40.589Z,1.30
2022-10-31T12:45:58.775Z,1.29
2022-10-31T13:07:27.323Z,0.71
2022-10-31T13:10:10.633Z,0.60
2022-10-31T13:12:44.547Z,0.54
2022-10-31T13:15:38.744Z,0.51
2022-10-31T13:18:19.926Z,0.46
2022-10-31T13:20:54.780Z,0.40
2022-10-31T13:23:51.247Z,0.35
2022-10-31T13:29:29.795Z,0.27
2022-10-31T13:32:05.707Z,0.27
2022-10-31T13:34:52.306Z,0.25
2022-10-31T13:37:42.794Z,0.26
2022-10-31T13:45:29.065Z,0.36
2022-10-31T13:48:01.844Z,0.30
2022-10-31T13:50:32.377Z,0.35
2022-10-31T13:56:20.048Z,0.40
2022-10-31T14:02:04.962Z,0.38
2022-10-31T14:07:41.048Z,0.46
2022-10-31T14:10:49.550Z,0.43
2022-10-31T14:13:47.645Z,0.43
2022-10-31T14:19:44.367Z,0.42
2022-10-31T14:28:51.064Z,0.54
2022-10-31T14:49:48.173Z,0.88
2022-10-31T14:52:31.027Z,0.88
2022-10-31T14:55:24.105Z,0.92
2022-10-31T14:58:17.567Z,1.02
2022-10-31T15:01:17.429Z,1.07
2022-10-31T15:04:29.804Z,1.19
2022-10-31T15:10:10.606Z,1.27
2022-10-31T15:13:14.508Z,1.23
2022-10-31T15:16:08.246Z,1.24
2022-10-31T15:22:01.705Z,1.28
2022-10-31T15:31:15.316Z,1.24
2022-10-31T15:34:08.556Z,1.30
2022-10-31T15:37:04.131Z,1.30
2022-10-31T15:40:11.127Z,1.30
2022-10-31T15:45:42.845Z,1.46
2022-10-31T15:48:28.990Z,1.40
2022-10-31T15:51:14.767Z,1.39
2022-10-31T15:54:03.453Z,1.39
2022-10-31T15:56:39.966Z,1.37
2022-10-31T15:59:29.275Z,1.38
2022-10-31T16:02:18.353Z,1.35
2022-10-31T16:05:03.706Z,1.40
2022-10-31T16:07:57.315Z,1.37
2022-10-31T16:10:42.067Z,1.31
2022-10-31T16:13:24.543Z,1.31
2022-10-31T16:16:34.211Z,1.26
2022-10-31T16:19:24.131Z,1.25
2022-10-31T16:22:32.224Z,1.19
2022-10-31T16:31:11.807Z,1.04
2022-10-31T16:34:12.086Z,1.05
2022-10-31T16:43:52.404Z,1.00
2022-10-31T16:46:48.554Z,0.99
2022-10-31T16:49:52.464Z,0.97
2022-10-31T17:03:01.765Z,0.96
2022-10-31T17:06:06.607Z,0.94
2022-10-31T17:12:22.426Z,0.90
2022-10-31T17:15:27.333Z,0.90
2022-10-31T17:18:27.037Z,0.91
2022-10-31T17:21:18.838Z,0.91
2022-10-31T17:24:34.547Z,0.90
2022-10-31T17:27:33.625Z,0.90
2022-10-31T17:30:24.310Z,0.92
2022-10-31T17:33:12.785Z,0.96
2022-10-31T17:48:29.870Z,0.98
2022-10-31T17:54:30.648Z,0.96
2022-10-31T17:57:27.047Z,0.94
2022-10-31T18:03:36.184Z,0.96
2022-10-31T18:06:28.018Z,0.94
2022-10-31T18:09:22.337Z,0.98
2022-10-31T18:12:30.967Z,1.00
2022-10-31T18:18:38.480Z,1.01
2022-10-31T18:21:36.036Z,1.01
2022-10-31T18:24:25.905Z,1.01
2022-10-31T18:27:16.484Z,1.04
2022-10-31T18:33:07.930Z,1.09
2022-10-31T18:35:58.846Z,1.09
2022-10-31T18:39:13.828Z,1.09
2022-10-31T18:45:45.933Z,1.12
2022-10-31T18:48:49.550Z,1.12
2022-10-31T18:52:04.489Z,1.14
2022-10-31T18:57:48.474Z,1.12
2022-10-31T19:00:35.572Z,1.12
2022-10-31T19:03:25.996Z,1.13
2022-10-31T19:06:13.200Z,1.15
2022-10-31T19:09:13.332Z,1.15
2022-10-31T19:12:17.585Z,1.20
2022-10-31T19:15:16.652Z,1.20
2022-10-31T19:18:16.345Z,1.17
2022-10-31T19:24:13.671Z,1.20
2022-10-31T19:27:06.468Z,1.18
2022-10-31T19:29:54.598Z,1.18
2022-10-31T19:32:51.608Z,1.21
2022-10-31T19:35:41.525Z,1.18
2022-10-31T19:44:04.405Z,1.20
2022-10-31T19:46:52.690Z,1.20
2022-10-31T19:49:24.531Z,1.18
2022-10-31T19:51:56.708Z,1.18
2022-10-31T19:54:27.145Z,1.17
2022-10-31T19:56:57.100Z,1.18
2022-10-31T19:59:29.147Z,1.18
2022-10-31T20:02:01.722Z,1.19
2022-10-31T20:04:31.915Z,1.19
2022-10-31T20:07:02.413Z,1.18
2022-10-31T20:09:33.429Z,1.18
2022-10-31T20:12:02.920Z,1.19
2022-10-31T20:14:34.028Z,1.19
2022-10-31T20:17:03.566Z,1.18
2022-10-31T20:19:33.782Z,1.18
2022-10-31T20:22:04.676Z,1.16
2022-10-31T20:24:34.263Z,1.16
2022-10-31T20:27:05.006Z,1.15
2022-10-31T20:29:34.664Z,1.18
2022-10-31T20:32:04.389Z,1.18
2022-10-31T20:34:34.452Z,1.15
2022-10-31T20:37:05.766Z,1.16
2022-10-31T20:39:37.811Z,1.17
2022-10-31T20:42:09.164Z,1.16
2022-10-31T20:44:39.452Z,1.14
2022-10-31T20:47:13.612Z,1.16
2022-10-31T20:49:46.591Z,1.16
2022-10-31T20:52:17.028Z,1.15
2022-10-31T20:54:51.448Z,1.14
2022-10-31T20:57:28.470Z,1.16
2022-10-31T20:59:59.748Z,1.14
2022-10-31T21:02:28.696Z,1.14
2022-10-31T21:05:01.952Z,1.16
2022-10-31T21:07:33.919Z,1.14
2022-10-31T21:10:04.063Z,1.13
2022-10-31T21:12:34.122Z,1.15
2022-10-31T21:15:02.883Z,1.16
2022-10-31T21:17:33.603Z,1.16
2022-10-31T21:20:03.242Z,1.16
2022-10-31T21:22:34.922Z,1.16
2022-10-31T21:25:04.514Z,1.16
2022-10-31T21:27:34.940Z,1.15
2022-10-31T21:30:05.635Z,1.13
2022-10-31T21:32:49.781Z,1.20
2022-10-31T21:35:34.282Z,1.12
2022-10-31T21:38:23.394Z,1.13
2022-10-31T21:41:06.154Z,1.13
2022-10-31T21:43:50.874Z,1.13
2022-10-31T21:46:32.676Z,1.11
2022-10-31T21:49:23.513Z,1.09
2022-10-31T21:52:14.715Z,1.09
2022-10-31T21:55:00.673Z,1.05
2022-10-31T21:57:45.796Z,1.00
2022-10-31T22:00:26.610Z,1.00
2022-10-31T22:03:07.913Z,0.92
2022-10-31T22:05:47.915Z,0.88
2022-10-31T22:08:28.295Z,0.88
2022-10-31T22:11:07.876Z,0.82
2022-10-31T22:13:43.647Z,0.80
2022-10-31T22:16:24.553Z,0.80
2022-10-31T22:19:10.475Z,0.77
2022-10-31T22:21:52.620Z,0.74
2022-10-31T22:24:33.915Z,0.71
2022-10-31T22:27:18.193Z,0.70
2022-10-31T22:29:59.556Z,0.70
2022-10-31T22:32:43.141Z,0.69
2022-10-31T22:35:28.696Z,0.66
2022-10-31T22:38:14.676Z,0.66
2022-10-31T22:41:03.557Z,0.66
2022-10-31T22:43:52.397Z,0.64
2022-10-31T22:46:37.874Z,0.64
2022-10-31T22:49:26.403Z,0.61
2022-10-31T22:52:12.353Z,0.62
2022-10-31T22:54:59.431Z,0.63
2022-10-31T22:57:49.115Z,0.62
2022-10-31T23:00:35.752Z,0.60
2022-10-31T23:03:30.035Z,0.57
2022-10-31T23:06:17.273Z,0.57
2022-10-31T23:08:55.400Z,0.56
2022-10-31T23:11:42.325Z,0.59
2022-10-31T23:14:26.394Z,0.59
2022-10-31T23:17:15.754Z,0.59
2022-10-31T23:20:06.555Z,0.63
2022-10-31T23:22:53.636Z,0.63
2022-10-31T23:48:27.418Z,0.48
2022-10-31T23:51:12.278Z,0.48
2022-10-31T23:53:57.143Z,0.47
2022-10-31T23:56:42.641Z,0.44
2022-10-31T23:59:40.689Z,0.46
